Time;durP1;ratioP1;P1;durP2;ratioP2;P2;SDS_P1;SDS_P2;PMS_P1;PMS_P2;Temp;Humidity;BMP_temperature;BMP_pressure;BME280_temperature;BME280_humidity;BME280_pressure;Samples;Min_cycle;Max_cycle;Signal;HPM_P1;HPM_P2
2023/10/15 00:01:52;;;;;;;1.07;1.00;;;23.00;42.50;;;;;;4984629;28;20982;-60
2023/10/15 00:04:18;;;;;;;1.10;1.00;;;23.00;42.50;;;;;;4999506;28;21003;-59
2023/10/15 00:06:43;;;;;;;1.40;1.30;;;22.90;42.40;;;;;;5006040;28;20467;-61
2023/10/15 00:09:09;;;;;;;1.00;1.00;;;23.00;42.50;;;;;;4986784;28;20235;-61
2023/10/15 00:11:35;;;;;;;1.30;1.20;;;22.90;42.50;;;;;;4988396;28;20302;-60
2023/10/15 00:14:04;;;;;;;1.20;1.10;;;22.90;42.50;;;;;;5005074;28;20525;-60
2023/10/15 00:16:29;;;;;;;1.30;1.20;;;22.90;42.50;;;;;;4990874;28;20222;-60
2023/10/15 00:18:55;;;;;;;1.30;1.20;;;22.90;43.30;;;;;;5005181;28;20476;-59
2023/10/15 00:21:21;;;;;;;1.17;1.00;;;22.90;42.60;;;;;;4987022;28;20653;-60
2023/10/15 00:23:47;;;;;;;1.57;1.00;;;22.90;42.50;;;;;;4988020;28;20802;-59
2023/10/15 00:26:14;;;;;;;1.60;1.43;;;22.90;42.50;;;;;;4983383;28;20627;-62
2023/10/15 00:28:39;;;;;;;1.20;1.10;;;22.90;42.60;;;;;;4984068;28;20687;-62
2023/10/15 00:31:09;;;;;;;1.40;1.30;;;22.90;42.50;;;;;;4986787;28;20469;-60
2023/10/15 00:33:35;;;;;;;1.20;1.10;;;22.90;42.50;;;;;;4984125;28;21055;-61
2023/10/15 00:36:01;;;;;;;1.17;1.07;;;22.90;42.60;;;;;;4985693;28;21230;-60
2023/10/15 00:38:26;;;;;;;1.10;1.00;;;22.90;42.60;;;;;;4995393;28;20469;-59
2023/10/15 00:41:07;;;;;;;1.00;0.90;;;23.00;42.70;;;;;;4984857;28;20224;-59
2023/10/15 00:43:32;;;;;;;1.17;1.07;;;22.90;42.60;;;;;;4988664;28;20242;-59
2023/10/15 00:45:59;;;;;;;1.20;1.10;;;22.90;42.60;;;;;;4991107;28;20537;-59
2023/10/15 00:48:33;;;;;;;1.07;1.00;;;22.90;42.60;;;;;;4985611;28;20621;-61
2023/10/15 00:51:00;;;;;;;1.27;1.10;;;22.90;42.60;;;;;;4993478;28;20487;-60
2023/10/15 00:53:28;;;;;;;1.10;1.00;;;22.90;42.60;;;;;;4992488;28;21245;-59
2023/10/15 00:56:03;;;;;;;1.47;1.10;;;22.90;42.60;;;;;;4988933;28;20938;-59
2023/10/15 01:03:54;;;;;;;1.40;1.30;;;22.90;42.60;;;;;;4994307;28;20440;-62
2023/10/15 01:06:35;;;;;;;1.20;0.80;;;22.90;42.60;;;;;;4993223;28;20507;-60
2023/10/15 01:09:27;;;;;;;1.10;1.00;;;22.90;42.70;;;;;;5007241;28;20451;-60
2023/10/15 01:11:57;;;;;;;1.17;1.07;;;22.90;42.60;;;;;;4994642;28;20544;-59
2023/10/15 01:14:31;;;;;;;1.00;0.93;;;22.90;42.60;;;;;;4986067;28;20463;-60
2023/10/15 01:16:59;;;;;;;1.40;1.23;;;22.90;42.60;;;;;;4997657;28;20560;-60
2023/10/15 01:19:33;;;;;;;1.20;1.10;;;22.90;42.60;;;;;;4988887;28;20477;-61
2023/10/15 01:22:04;;;;;;;1.13;1.03;;;22.90;42.60;;;;;;5003454;28;20542;-60
2023/10/15 01:24:33;;;;;;;1.03;0.90;;;22.90;42.60;;;;;;4987290;28;20531;-61
2023/10/15 01:29:35;;;;;;;1.00;1.00;;;22.90;42.60;;;;;;4987538;28;20467;-60
2023/10/15 01:32:03;;;;;;;1.20;1.00;;;22.90;42.60;;;;;;4992127;28;20814;-60
2023/10/15 01:34:31;;;;;;;1.20;0.90;;;22.90;42.60;;;;;;5000649;28;20496;-61
2023/10/15 01:36:57;;;;;;;1.23;1.13;;;22.90;42.60;;;;;;4997970;28;20514;-60
2023/10/15 01:39:33;;;;;;;1.40;1.20;;;22.90;42.60;;;;;;5002607;28;20448;-59
2023/10/15 01:42:04;;;;;;;1.03;1.00;;;22.90;42.60;;;;;;4994960;28;20696;-60
2023/10/15 01:44:30;;;;;;;1.20;1.10;;;22.90;42.60;;;;;;5000820;28;20459;-61
2023/10/15 01:47:07;;;;;;;0.93;0.93;;;22.90;42.60;;;;;;4999241;28;20762;-62
2023/10/15 01:49:36;;;;;;;1.03;0.93;;;22.90;42.60;;;;;;4987148;28;20465;-59
2023/10/15 01:52:09;;;;;;;1.43;1.07;;;22.90;42.70;;;;;;4992179;28;20456;-59
2023/10/15 01:54:45;;;;;;;1.17;1.07;;;22.90;42.60;;;;;;4986165;28;20464;-60
2023/10/15 01:57:15;;;;;;;0.97;0.90;;;22.90;42.60;;;;;;4989614;28;20468;-59
2023/10/15 01:59:45;;;;;;;1.03;0.93;;;22.90;42.60;;;;;;4997709;28;20836;-59
2023/10/15 02:02:23;;;;;;;1.20;1.00;;;22.90;42.60;;;;;;5003592;28;20461;-59
2023/10/15 02:04:50;;;;;;;0.90;0.80;;;22.90;42.70;;;;;;5007183;28;20656;-59
2023/10/15 02:07:20;;;;;;;1.20;1.10;;;22.90;42.60;;;;;;5006280;28;21063;-60
2023/10/15 02:09:50;;;;;;;1.73;1.53;;;22.90;42.60;;;;;;4991517;28;20460;-61
2023/10/15 02:12:20;;;;;;;1.00;0.90;;;22.90;42.60;;;;;;4997393;28;20462;-60
2023/10/15 02:14:51;;;;;;;1.07;0.97;;;22.90;42.60;;;;;;4991468;28;20470;-61
2023/10/15 02:17:23;;;;;;;0.80;0.80;;;22.90;42.60;;;;;;4988940;28;20481;-59
2023/10/15 02:19:49;;;;;;;0.90;0.80;;;22.90;42.60;;;;;;4987731;28;20472;-59
2023/10/15 02:22:15;;;;;;;0.73;0.70;;;22.90;42.60;;;;;;4988885;28;20464;-60
2023/10/15 02:24:46;;;;;;;0.90;0.80;;;22.90;42.70;;;;;;4982675;28;20235;-59
2023/10/15 02:27:23;;;;;;;1.10;1.00;;;22.90;42.70;;;;;;4995604;28;20219;-60
2023/10/15 02:29:50;;;;;;;1.10;1.00;;;22.90;42.60;;;;;;5005588;28;20475;-59
2023/10/15 02:32:30;;;;;;;1.10;1.00;;;22.90;42.60;;;;;;5006230;28;20580;-59
2023/10/15 02:34:59;;;;;;;0.87;0.87;;;22.90;42.50;;;;;;4992808;28;20938;-59
2023/10/15 02:37:28;;;;;;;0.93;0.83;;;22.90;42.50;;;;;;5009621;28;20471;-60
2023/10/15 02:39:58;;;;;;;1.07;0.97;;;22.90;42.60;;;;;;4987562;28;20461;-61
2023/10/15 02:42:35;;;;;;;1.10;1.00;;;22.90;42.50;;;;;;4986214;28;21048;-61
2023/10/15 02:45:06;;;;;;;1.67;1.23;;;22.90;42.50;;;;;;4984842;28;21039;-60
2023/10/15 02:47:31;;;;;;;1.20;0.93;;;22.90;42.50;;;;;;4986181;28;20991;-59
2023/10/15 02:50:01;;;;;;;1.20;1.10;;;22.80;42.30;;;;;;4987203;28;20595;-60
2023/10/15 02:52:54;;;;;;;1.30;1.00;;;22.80;42.30;;;;;;4989491;28;20222;-59
2023/10/15 02:55:26;;;;;;;1.10;1.00;;;22.80;42.30;;;;;;4999780;28;20584;-59
2023/10/15 02:57:52;;;;;;;1.07;0.83;;;22.80;42.30;;;;;;5006636;28;20527;-60
2023/10/15 03:00:32;;;;;;;1.10;1.00;;;22.80;42.30;;;;;;5000972;28;20460;-60
2023/10/15 03:03:06;;;;;;;1.20;1.10;;;22.80;42.30;;;;;;4988694;28;21429;-61
2023/10/15 03:05:38;;;;;;;1.10;1.00;;;22.80;42.30;;;;;;5001744;28;20522;-60
2023/10/15 03:08:04;;;;;;;1.33;1.00;;;22.80;42.20;;;;;;5002573;28;20903;-62
2023/10/15 03:10:30;;;;;;;1.00;0.90;;;22.80;42.30;;;;;;4991072;28;20450;-60
2023/10/15 03:12:59;;;;;;;0.83;0.83;;;22.80;42.20;;;;;;4985624;28;20410;-60
2023/10/15 03:15:25;;;;;;;0.80;0.70;;;22.80;42.20;;;;;;5002308;28;20455;-59
2023/10/15 03:17:50;;;;;;;1.03;0.93;;;22.80;42.20;;;;;;4994984;28;20566;-60
2023/10/15 03:20:24;;;;;;;1.40;1.30;;;22.80;42.20;;;;;;4985209;28;20464;-60
2023/10/15 03:22:58;;;;;;;1.10;0.90;;;22.80;42.20;;;;;;4987442;28;20308;-60
2023/10/15 03:25:26;;;;;;;1.60;1.07;;;22.80;42.10;;;;;;4984432;28;20462;-59
2023/10/15 03:27:54;;;;;;;2.23;1.20;;;22.80;42.10;;;;;;4992176;28;20448;-59
2023/10/15 03:30:23;;;;;;;1.30;1.03;;;22.80;42.10;;;;;;4996055;28;20470;-62
2023/10/15 03:32:52;;;;;;;1.07;0.97;;;22.80;42.20;;;;;;4988909;28;20552;-60
2023/10/15 03:35:27;;;;;;;1.10;1.00;;;22.80;42.00;;;;;;4984896;28;20556;-61
2023/10/15 03:37:59;;;;;;;1.10;1.00;;;22.80;42.00;;;;;;4986526;28;20428;-61
2023/10/15 03:40:31;;;;;;;1.20;1.10;;;22.80;41.80;;;;;;4992081;28;20465;-60
2023/10/15 03:43:06;;;;;;;1.10;1.00;;;22.80;41.80;;;;;;4988550;28;20492;-61
2023/10/15 03:45:50;;;;;;;1.43;0.90;;;22.80;41.70;;;;;;4984885;28;20543;-60
2023/10/15 03:48:15;;;;;;;1.10;1.00;;;22.80;41.70;;;;;;4984376;28;20737;-61
2023/10/15 03:50:53;;;;;;;1.83;0.90;;;22.80;41.70;;;;;;4987311;28;20947;-60
2023/10/15 03:53:27;;;;;;;1.10;0.90;;;22.80;41.70;;;;;;4988969;28;20226;-60
2023/10/15 03:55:55;;;;;;;2.70;1.00;;;22.80;41.70;;;;;;4987767;28;20453;-60
2023/10/15 03:58:22;;;;;;;1.37;1.10;;;22.80;41.70;;;;;;4990413;28;20477;-59
2023/10/15 04:00:54;;;;;;;1.27;1.00;;;22.80;41.70;;;;;;4986091;28;20466;-61
2023/10/15 04:03:28;;;;;;;1.40;1.13;;;22.80;41.70;;;;;;4994820;28;20974;-59
2023/10/15 04:06:01;;;;;;;1.20;1.10;;;22.80;41.70;;;;;;5000384;28;20958;-61
2023/10/15 04:08:27;;;;;;;1.03;0.93;;;22.80;41.70;;;;;;4994560;28;20522;-60
2023/10/15 04:10:56;;;;;;;1.13;1.03;;;22.80;41.70;;;;;;4989321;28;20843;-59
2023/10/15 04:13:22;;;;;;;1.03;0.93;;;22.80;41.70;;;;;;4988105;28;20460;-60
2023/10/15 04:15:49;;;;;;;2.00;1.10;;;22.80;41.70;;;;;;4990040;28;20461;-59
2023/10/15 04:18:14;;;;;;;1.10;1.00;;;22.80;41.70;;;;;;4985411;28;20244;-60
2023/10/15 04:20:43;;;;;;;1.63;1.00;;;22.80;41.70;;;;;;4991467;28;20460;-60
2023/10/15 04:23:12;;;;;;;2.10;1.00;;;22.80;41.70;;;;;;4985462;28;22075;-60
2023/10/15 04:25:38;;;;;;;0.90;0.90;;;22.80;41.70;;;;;;4986445;28;21052;-60
2023/10/15 04:28:14;;;;;;;1.27;1.10;;;22.80;41.70;;;;;;4987212;28;20497;-61
2023/10/15 04:30:40;;;;;;;1.57;1.10;;;22.80;41.70;;;;;;4992996;28;20456;-60
2023/10/15 04:33:10;;;;;;;1.40;1.20;;;22.80;41.70;;;;;;4992652;28;20465;-61
2023/10/15 04:35:37;;;;;;;1.67;1.10;;;22.80;41.70;;;;;;4980973;28;20462;-60
2023/10/15 04:38:07;;;;;;;0.87;0.80;;;22.80;41.70;;;;;;4988815;28;20874;-60
2023/10/15 04:41:00;;;;;;;0.90;0.90;;;22.80;41.70;;;;;;4988258;28;20485;-59
2023/10/15 04:43:24;;;;;;;1.00;0.87;;;22.80;41.70;;;;;;4986981;28;20564;-61
2023/10/15 04:45:50;;;;;;;1.20;1.00;;;22.80;41.70;;;;;;4981256;28;20472;-61
2023/10/15 04:48:16;;;;;;;1.70;1.30;;;22.80;41.70;;;;;;4988873;28;20506;-61
2023/10/15 04:50:45;;;;;;;1.13;1.03;;;22.80;41.70;;;;;;4996854;28;21406;-60
2023/10/15 04:55:42;;;;;;;1.13;1.03;;;22.80;41.70;;;;;;5005560;28;20559;-60
2023/10/15 04:58:09;;;;;;;1.20;1.10;;;22.80;41.70;;;;;;4998902;28;20469;-60
2023/10/15 05:00:37;;;;;;;1.50;1.10;;;22.80;41.70;;;;;;5001113;28;20604;-60
2023/10/15 05:03:04;;;;;;;1.20;1.10;;;22.80;41.70;;;;;;4992305;28;20460;-60
2023/10/15 05:05:31;;;;;;;1.10;1.00;;;22.80;41.70;;;;;;4995744;28;21035;-60
2023/10/15 05:07:59;;;;;;;1.00;0.90;;;22.80;41.70;;;;;;4995304;28;20527;-62
2023/10/15 05:10:32;;;;;;;1.03;0.93;;;22.80;41.70;;;;;;4996073;28;20535;-61
2023/10/15 05:12:59;;;;;;;1.00;1.00;;;22.80;41.70;;;;;;4990635;28;20458;-61
2023/10/15 05:15:25;;;;;;;1.10;0.90;;;22.80;41.70;;;;;;4990617;28;20506;-59
2023/10/15 05:17:50;;;;;;;1.00;0.90;;;22.80;41.70;;;;;;4991678;28;20997;-60
2023/10/15 05:20:16;;;;;;;2.00;1.20;;;22.80;41.70;;;;;;4991015;28;20257;-62
2023/10/15 05:22:42;;;;;;;2.13;1.10;;;22.80;41.70;;;;;;5006681;28;20641;-59
2023/10/15 05:25:15;;;;;;;1.27;1.17;;;22.80;41.70;;;;;;5011678;28;20212;-60
2023/10/15 05:27:42;;;;;;;1.00;0.90;;;22.80;41.70;;;;;;5007869;28;20238;-60
2023/10/15 05:30:10;;;;;;;1.30;1.20;;;22.80;41.70;;;;;;4990871;28;20986;-61
2023/10/15 05:32:36;;;;;;;1.17;0.97;;;22.80;41.70;;;;;;4992635;28;20503;-60
2023/10/15 05:35:02;;;;;;;1.20;1.10;;;22.80;41.70;;;;;;4988821;28;20449;-60
2023/10/15 05:37:27;;;;;;;1.13;1.03;;;22.80;41.70;;;;;;4992383;28;20243;-60
2023/10/15 05:39:53;;;;;;;0.90;0.90;;;22.80;41.70;;;;;;5006792;28;20580;-61
2023/10/15 05:42:19;;;;;;;1.10;1.00;;;22.80;41.70;;;;;;4995694;28;20216;-60
2023/10/15 05:44:44;;;;;;;1.10;1.00;;;22.80;41.70;;;;;;4999623;28;20580;-60
2023/10/15 05:47:10;;;;;;;1.43;1.30;;;22.80;41.70;;;;;;5000375;28;20373;-60
2023/10/15 05:49:38;;;;;;;1.20;1.10;;;22.80;41.70;;;;;;4998064;28;20218;-60
2023/10/15 05:52:06;;;;;;;1.10;1.00;;;22.80;41.70;;;;;;4995993;28;20828;-61
2023/10/15 05:54:34;;;;;;;1.10;1.00;;;22.80;41.70;;;;;;5006364;28;20449;-60
2023/10/15 05:57:02;;;;;;;0.97;0.90;;;22.80;41.70;;;;;;5001115;28;20435;-62
2023/10/15 05:59:28;;;;;;;1.27;1.17;;;22.80;41.70;;;;;;4991995;28;20457;-60
2023/10/15 06:01:53;;;;;;;1.20;1.10;;;22.80;41.70;;;;;;4996907;28;20445;-60
2023/10/15 06:04:19;;;;;;;1.27;1.17;;;22.80;41.70;;;;;;4993319;28;20238;-61
2023/10/15 06:06:44;;;;;;;1.13;1.03;;;22.80;41.70;;;;;;4996246;28;20223;-61
2023/10/15 06:09:11;;;;;;;1.30;1.10;;;22.80;41.70;;;;;;4992564;28;20354;-60
2023/10/15 06:11:37;;;;;;;1.20;1.10;;;22.80;41.70;;;;;;4992330;28;20215;-61
2023/10/15 06:14:04;;;;;;;1.10;1.00;;;22.80;41.70;;;;;;4991669;28;20848;-57
2023/10/15 06:16:30;;;;;;;1.20;1.03;;;22.80;41.70;;;;;;5007239;28;20460;-60
2023/10/15 06:18:55;;;;;;;3.27;1.00;;;22.80;41.70;;;;;;4993604;28;20820;-60
2023/10/15 06:21:21;;;;;;;1.00;0.90;;;22.80;41.70;;;;;;4992569;28;20233;-64
2023/10/15 06:23:46;;;;;;;3.27;0.90;;;22.80;41.70;;;;;;5004410;28;20949;-60
2023/10/15 06:26:13;;;;;;;0.97;0.90;;;22.80;41.70;;;;;;4999659;28;20285;-60
2023/10/15 06:28:38;;;;;;;1.73;1.00;;;22.80;41.70;;;;;;4988269;28;20223;-60
2023/10/15 06:31:04;;;;;;;0.93;0.93;;;22.80;41.70;;;;;;5006793;28;20518;-59
2023/10/15 06:33:30;;;;;;;0.83;0.83;;;22.80;41.70;;;;;;5010049;28;20277;-61
2023/10/15 06:35:56;;;;;;;1.10;0.90;;;22.80;41.70;;;;;;4994581;28;20452;-60
2023/10/15 06:38:21;;;;;;;1.00;0.90;;;22.80;41.70;;;;;;4994560;28;20271;-61
2023/10/15 06:40:47;;;;;;;7.03;1.10;;;22.80;41.70;;;;;;4994396;28;20259;-59
2023/10/15 06:43:15;;;;;;;1.23;1.13;;;22.80;41.70;;;;;;5006091;28;20231;-62
2023/10/15 06:45:40;;;;;;;1.03;0.93;;;22.80;41.70;;;;;;4993609;28;20240;-60
2023/10/15 06:48:06;;;;;;;1.00;0.90;;;22.80;41.70;;;;;;4992479;28;21028;-60
2023/10/15 06:50:33;;;;;;;1.10;1.00;;;22.80;41.70;;;;;;4993016;28;20227;-59
2023/10/15 06:53:01;;;;;;;1.10;1.00;;;22.80;41.70;;;;;;4992970;28;20616;-61
2023/10/15 06:55:27;;;;;;;2.80;1.10;;;22.80;41.70;;;;;;4991446;28;20454;-61
2023/10/15 06:57:53;;;;;;;2.03;1.00;;;22.80;41.70;;;;;;5009432;28;20457;-60
2023/10/15 07:00:22;;;;;;;1.00;0.90;;;22.80;41.70;;;;;;5002585;28;20472;-61
2023/10/15 07:02:51;;;;;;;3.90;0.90;;;22.80;41.70;;;;;;4997215;28;20462;-60
2023/10/15 07:05:18;;;;;;;1.33;1.00;;;22.80;41.70;;;;;;5001274;28;20480;-60
2023/10/15 07:07:45;;;;;;;0.97;0.90;;;22.80;41.70;;;;;;5009153;28;20457;-61
2023/10/15 07:10:15;;;;;;;1.43;0.90;;;22.80;41.70;;;;;;4982294;28;22035;-60
2023/10/15 07:12:52;;;;;;;0.90;0.80;;;22.80;41.70;;;;;;4984056;28;20466;-60
2023/10/15 07:15:23;;;;;;;1.30;1.07;;;22.80;41.70;;;;;;4989064;28;21114;-61
2023/10/15 07:17:50;;;;;;;1.10;1.00;;;22.80;41.70;;;;;;4984178;28;20847;-61
2023/10/15 07:20:20;;;;;;;1.30;1.10;;;22.80;41.70;;;;;;4994896;28;20514;-61
2023/10/15 07:22:51;;;;;;;1.00;0.90;;;22.80;41.70;;;;;;4993933;28;20465;-60
2023/10/15 07:25:20;;;;;;;0.80;0.80;;;22.80;41.70;;;;;;4991070;28;20548;-60
2023/10/15 07:27:48;;;;;;;2.20;0.80;;;22.80;41.70;;;;;;4988361;28;20806;-60
2023/10/15 07:30:16;;;;;;;0.90;0.80;;;22.80;42.40;;;;;;4990906;28;21045;-59
2023/10/15 07:32:44;;;;;;;1.10;0.90;;;22.80;41.70;;;;;;5001744;28;20985;-60
2023/10/15 07:35:13;;;;;;;0.90;0.90;;;22.80;41.70;;;;;;4989864;28;20483;-61
2023/10/15 07:37:44;;;;;;;1.10;0.90;;;22.80;41.70;;;;;;4992814;28;21010;-62
2023/10/15 07:40:16;;;;;;;1.03;0.93;;;22.80;41.70;;;;;;4984928;28;20893;-60
2023/10/15 07:42:43;;;;;;;1.23;1.07;;;22.80;41.70;;;;;;5004062;28;20518;-61
2023/10/15 07:45:09;;;;;;;1.00;0.90;;;22.80;41.70;;;;;;4990668;28;20469;-60
2023/10/15 07:47:37;;;;;;;1.50;1.33;;;22.80;41.70;;;;;;4995885;28;20449;-60
2023/10/15 07:50:07;;;;;;;3.80;1.60;;;22.80;41.70;;;;;;4997817;28;20777;-60
2023/10/15 07:52:33;;;;;;;1.80;1.70;;;22.80;41.70;;;;;;4995467;28;20513;-60
2023/10/15 07:54:59;;;;;;;5.10;2.50;;;22.80;41.70;;;;;;4995352;28;20433;-62
2023/10/15 07:57:26;;;;;;;7.80;2.40;;;22.80;41.70;;;;;;4990976;28;20472;-60
2023/10/15 07:59:54;;;;;;;4.43;2.80;;;22.80;42.40;;;;;;4984220;28;20457;-61
2023/10/15 08:02:21;;;;;;;3.33;2.90;;;22.80;41.70;;;;;;5007778;28;20555;-62
2023/10/15 08:04:47;;;;;;;4.10;3.60;;;22.80;41.70;;;;;;4992053;28;20506;-62
2023/10/15 08:07:13;;;;;;;3.70;3.50;;;22.80;41.70;;;;;;5008072;28;20452;-61
2023/10/15 08:09:38;;;;;;;5.30;4.30;;;22.80;41.70;;;;;;4986754;28;20322;-61
2023/10/15 08:12:04;;;;;;;6.30;3.80;;;22.80;41.70;;;;;;4999459;28;20318;-62
2023/10/15 08:14:30;;;;;;;5.63;4.83;;;22.80;41.70;;;;;;5009138;28;20588;-60
2023/10/15 08:16:55;;;;;;;4.67;4.27;;;22.80;41.70;;;;;;4998560;28;20469;-60
2023/10/15 08:19:21;;;;;;;7.10;4.70;;;22.80;41.70;;;;;;4987792;28;20242;-59
2023/10/15 08:21:46;;;;;;;7.50;4.00;;;22.80;41.70;;;;;;4992394;28;20226;-64
2023/10/15 08:24:14;;;;;;;6.83;4.70;;;22.80;41.70;;;;;;4990403;28;20223;-59
2023/10/15 08:26:41;;;;;;;6.00;4.37;;;22.80;41.70;;;;;;4991546;28;20220;-61
2023/10/15 08:29:09;;;;;;;6.07;4.53;;;22.80;41.70;;;;;;4989116;28;20496;-58
2023/10/15 08:31:35;;;;;;;8.50;5.00;;;22.80;41.70;;;;;;4990252;28;20461;-59
2023/10/15 08:34:01;;;;;;;7.30;5.00;;;22.80;41.70;;;;;;4987162;28;20503;-60
2023/10/15 08:36:27;;;;;;;5.87;5.33;;;22.80;41.70;;;;;;4997882;28;20971;-60
2023/10/15 08:38:52;;;;;;;4.77;4.27;;;22.80;41.70;;;;;;4985028;28;20290;-59
2023/10/15 08:41:21;;;;;;;5.17;4.07;;;22.80;41.70;;;;;;4989113;28;20322;-60
2023/10/15 08:43:50;;;;;;;5.57;4.63;;;22.80;41.70;;;;;;4987864;28;20223;-59
2023/10/15 08:46:22;;;;;;;4.80;4.30;;;22.80;41.70;;;;;;4995134;28;21165;-60
2023/10/15 08:48:49;;;;;;;5.20;4.63;;;22.80;41.70;;;;;;4986699;28;20521;-62
2023/10/15 08:51:21;;;;;;;4.50;4.13;;;22.80;41.70;;;;;;4987124;28;20553;-59
2023/10/15 08:53:50;;;;;;;5.40;4.93;;;22.80;41.70;;;;;;4987738;28;20970;-59
2023/10/15 08:56:22;;;;;;;7.10;5.23;;;22.80;42.40;;;;;;4987128;28;20449;-62
2023/10/15 08:58:57;;;;;;;5.83;5.30;;;22.80;41.70;;;;;;4994353;28;20477;-59
2023/10/15 09:01:23;;;;;;;4.40;3.93;;;22.80;41.70;;;;;;4991536;28;20483;-60
2023/10/15 09:03:52;;;;;;;6.57;4.57;;;22.80;41.70;;;;;;5005491;28;21150;-59
2023/10/15 09:06:22;;;;;;;4.97;4.57;;;22.80;41.70;;;;;;4991434;28;20223;-59
2023/10/15 09:08:50;;;;;;;4.63;4.17;;;22.80;41.70;;;;;;4992702;28;20813;-61
2023/10/15 09:11:16;;;;;;;4.00;3.60;;;22.80;41.70;;;;;;4986925;28;22033;-60
2023/10/15 09:13:49;;;;;;;4.50;4.17;;;22.80;41.70;;;;;;4999729;28;20457;-59
2023/10/15 09:16:15;;;;;;;4.90;4.20;;;22.80;41.70;;;;;;5008245;28;20445;-60
2023/10/15 09:18:43;;;;;;;5.40;4.90;;;22.80;41.70;;;;;;5014215;28;20535;-60
2023/10/15 09:21:09;;;;;;;4.27;3.93;;;22.80;41.70;;;;;;5014952;28;20222;-60
2023/10/15 09:23:36;;;;;;;4.67;4.37;;;22.80;41.70;;;;;;4994922;28;20824;-60
2023/10/15 09:26:04;;;;;;;4.33;4.00;;;22.80;41.70;;;;;;5003502;28;20338;-59
2023/10/15 09:28:30;;;;;;;6.20;4.50;;;22.80;41.70;;;;;;5001529;28;20509;-59
2023/10/15 09:31:11;;;;;;;3.70;3.40;;;22.80;41.70;;;;;;5010698;28;20460;-60
2023/10/15 09:33:38;;;;;;;4.50;4.20;;;22.80;41.70;;;;;;5012459;28;20241;-60
2023/10/15 09:36:07;;;;;;;4.23;3.77;;;22.80;41.70;;;;;;4988732;28;20564;-60
2023/10/15 09:38:34;;;;;;;4.13;3.83;;;22.80;41.70;;;;;;4995775;28;20983;-64
2023/10/15 09:41:01;;;;;;;4.83;4.00;;;22.80;41.70;;;;;;4999466;28;20468;-60
2023/10/15 09:43:31;;;;;;;5.10;4.43;;;22.80;42.40;;;;;;5002949;28;20467;-60
2023/10/15 09:45:57;;;;;;;4.47;4.17;;;22.80;41.70;;;;;;5003456;28;20452;-61
2023/10/15 09:48:26;;;;;;;5.17;4.50;;;22.80;41.70;;;;;;4992731;28;20583;-60
2023/10/15 09:50:56;;;;;;;3.97;3.63;;;22.80;41.70;;;;;;4998669;28;20508;-60
2023/10/15 09:53:23;;;;;;;4.57;4.17;;;22.80;41.70;;;;;;4994187;28;21004;-59
2023/10/15 09:55:51;;;;;;;4.93;4.43;;;22.80;41.90;;;;;;4995256;28;20507;-62
2023/10/15 09:58:17;;;;;;;4.23;3.67;;;22.80;41.70;;;;;;4994238;28;20481;-60
2023/10/15 10:04:03;;;;;;;3.43;3.13;;;22.80;41.70;;;;;;5004079;28;20489;-60
2023/10/15 10:06:48;;;;;;;4.30;3.90;;;22.80;41.70;;;;;;4996791;28;21053;-63
2023/10/15 10:10:09;;;;;;;6.20;4.13;;;22.80;41.70;;;;;;5001596;28;20483;-59
2023/10/15 10:13:11;;;;;;;3.20;2.90;;;22.80;41.70;;;;;;4933802;28;20459;-60
2023/10/15 10:15:54;;;;;;;5.53;3.90;;;22.80;41.70;;;;;;5002603;28;20962;-60
2023/10/15 10:18:21;;;;;;;4.60;4.20;;;22.80;41.70;;;;;;4992272;28;20847;-59
2023/10/15 10:20:48;;;;;;;3.90;3.60;;;22.80;41.70;;;;;;5007723;28;20561;-60
2023/10/15 10:23:14;;;;;;;3.17;2.97;;;22.80;41.70;;;;;;5004824;28;20451;-60
2023/10/15 10:25:48;;;;;;;3.20;2.97;;;22.80;41.70;;;;;;5007164;28;20459;-58
2023/10/15 10:28:19;;;;;;;3.80;3.50;;;22.80;41.70;;;;;;4985967;28;21073;-60
2023/10/15 10:30:55;;;;;;;3.07;2.87;;;22.80;41.70;;;;;;4988558;28;20465;-60
2023/10/15 10:33:43;;;;;;;3.80;3.50;;;22.80;41.70;;;;;;4981517;28;20460;-62
2023/10/15 10:36:12;;;;;;;5.10;2.97;;;22.80;41.70;;;;;;4989895;28;20457;-60
2023/10/15 10:38:41;;;;;;;3.63;2.50;;;22.80;41.70;;;;;;5008549;28;20465;-60
2023/10/15 10:41:13;;;;;;;3.50;3.20;;;22.80;41.70;;;;;;4990740;28;20630;-63
2023/10/15 10:43:41;;;;;;;18.50;5.00;;;22.80;41.70;;;;;;4996309;28;20460;-64
2023/10/15 10:46:06;;;;;;;2.90;2.60;;;22.80;41.70;;;;;;4986194;28;20863;-61
2023/10/15 10:48:33;;;;;;;3.60;3.40;;;22.80;41.70;;;;;;4989534;28;20469;-61
2023/10/15 10:51:08;;;;;;;3.20;3.00;;;22.80;41.70;;;;;;4982086;28;20384;-60
2023/10/15 10:53:34;;;;;;;7.50;3.50;;;22.80;41.70;;;;;;4983259;28;20467;-60
2023/10/15 10:56:04;;;;;;;9.30;3.67;;;22.80;41.70;;;;;;4998047;28;20482;-60
2023/10/15 10:58:29;;;;;;;10.00;3.40;;;22.80;41.70;;;;;;4984418;28;20474;-62
2023/10/15 11:00:56;;;;;;;6.97;3.20;;;22.80;41.70;;;;;;4991817;28;21008;-61
2023/10/15 11:03:23;;;;;;;11.67;4.00;;;22.90;41.80;;;;;;4981462;28;20258;-61
2023/10/15 11:05:48;;;;;;;12.03;4.70;;;22.80;41.70;;;;;;4979918;28;20517;-62
2023/10/15 11:08:18;;;;;;;11.00;3.70;;;22.90;41.80;;;;;;4983662;28;20472;-62
2023/10/15 11:10:45;;;;;;;6.13;3.30;;;22.90;41.80;;;;;;4982627;28;20228;-60
2023/10/15 11:13:12;;;;;;;8.33;3.57;;;22.90;41.80;;;;;;4990159;28;20450;-62
2023/10/15 11:15:37;;;;;;;8.40;4.30;;;22.90;41.80;;;;;;4991496;28;20605;-61
2023/10/15 11:18:07;;;;;;;5.50;3.43;;;22.90;41.80;;;;;;4988144;28;20481;-61
2023/10/15 11:20:35;;;;;;;7.10;3.43;;;22.90;41.80;;;;;;4988618;28;20226;-63
2023/10/15 11:23:06;;;;;;;6.13;3.70;;;22.90;41.80;;;;;;4982113;28;21157;-61
2023/10/15 11:25:34;;;;;;;7.93;3.80;;;22.90;41.80;;;;;;4981738;28;20527;-63
2023/10/15 11:28:06;;;;;;;4.77;3.10;;;22.90;41.80;;;;;;4997327;28;20519;-61
2023/10/15 11:30:33;;;;;;;3.90;3.33;;;22.90;41.80;;;;;;4987461;28;20470;-62
2023/10/15 11:33:00;;;;;;;3.70;2.90;;;22.90;41.80;;;;;;4990603;28;20472;-61
2023/10/15 11:35:31;;;;;;;4.60;2.80;;;22.90;41.80;;;;;;4982237;28;20560;-61
2023/10/15 11:37:57;;;;;;;5.70;3.07;;;22.90;41.80;;;;;;4979299;28;20481;-61
2023/10/15 11:40:23;;;;;;;3.10;2.77;;;22.90;41.80;;;;;;4981508;28;20500;-60
2023/10/15 11:42:54;;;;;;;9.00;3.47;;;22.90;41.80;;;;;;4984234;28;20222;-62
2023/10/15 11:45:30;;;;;;;11.60;3.13;;;22.90;41.80;;;;;;4984161;28;20544;-63
2023/10/15 11:47:56;;;;;;;7.70;2.53;;;22.90;41.80;;;;;;4981690;28;20478;-64
2023/10/15 11:50:25;;;;;;;5.60;2.63;;;22.90;41.80;;;;;;4971078;28;20473;-62
2023/10/15 11:52:54;;;;;;;5.73;2.67;;;22.90;41.80;;;;;;4976192;28;20453;-62
2023/10/15 11:55:21;;;;;;;7.80;2.93;;;22.90;41.80;;;;;;4996763;28;20468;-62
2023/10/15 11:57:50;;;;;;;2.83;2.63;;;22.90;41.80;;;;;;5000143;28;20516;-62
2023/10/15 12:00:31;;;;;;;7.00;2.70;;;22.90;41.80;;;;;;4987252;28;21045;-62
2023/10/15 12:02:59;;;;;;;4.70;2.50;;;22.90;41.80;;;;;;4976500;28;21141;-62
2023/10/15 12:05:27;;;;;;;3.27;2.70;;;22.90;41.80;;;;;;4977193;28;20473;-64
2023/10/15 12:07:53;;;;;;;2.77;2.30;;;22.90;41.80;;;;;;4977631;28;20461;-64
2023/10/15 12:10:19;;;;;;;3.17;2.20;;;22.90;41.80;;;;;;4978965;28;20973;-62
2023/10/15 12:12:45;;;;;;;2.77;2.00;;;22.90;41.80;;;;;;4978865;28;20464;-65
2023/10/15 12:15:10;;;;;;;4.50;3.20;;;22.90;41.80;;;;;;4972918;28;20962;-64
2023/10/15 12:17:36;;;;;;;4.67;2.10;;;22.90;41.80;;;;;;4977478;28;21034;-61
2023/10/15 12:20:06;;;;;;;2.33;2.10;;;22.90;41.80;;;;;;4971808;28;20592;-62
2023/10/15 12:22:32;;;;;;;3.00;1.97;;;22.90;41.80;;;;;;4980783;28;20637;-62
2023/10/15 12:25:00;;;;;;;2.70;2.50;;;22.90;42.00;;;;;;4985319;28;20956;-61
2023/10/15 12:27:28;;;;;;;4.60;2.50;;;22.90;41.90;;;;;;4987464;28;20562;-65
2023/10/15 12:29:57;;;;;;;3.13;2.23;;;22.90;41.90;;;;;;4983152;28;21006;-65
2023/10/15 12:32:23;;;;;;;2.20;2.00;;;22.90;41.90;;;;;;4978855;28;21105;-61
2023/10/15 12:34:49;;;;;;;2.90;1.77;;;22.90;42.00;;;;;;4984000;28;20475;-62
2023/10/15 12:37:15;;;;;;;2.40;2.20;;;22.90;42.00;;;;;;4983524;28;21419;-65
2023/10/15 12:39:43;;;;;;;2.27;2.10;;;22.90;42.10;;;;;;4983219;28;20497;-62
2023/10/15 12:42:11;;;;;;;2.00;1.90;;;22.90;42.10;;;;;;4983489;28;20231;-62
2023/10/15 12:44:39;;;;;;;2.07;1.93;;;22.90;42.00;;;;;;4981297;28;20469;-64
2023/10/15 12:47:05;;;;;;;1.70;1.53;;;22.90;42.10;;;;;;4983626;28;20470;-61
2023/10/15 12:49:30;;;;;;;2.70;1.80;;;22.90;42.10;;;;;;4987760;28;20556;-61
2023/10/15 12:51:58;;;;;;;2.00;1.67;;;22.90;42.10;;;;;;4983497;28;20285;-62
2023/10/15 12:54:24;;;;;;;1.80;1.70;;;22.90;42.10;;;;;;4988247;28;20223;-62
2023/10/15 12:56:49;;;;;;;2.73;1.57;;;22.90;42.10;;;;;;4989945;28;20922;-61
2023/10/15 12:59:15;;;;;;;2.00;1.90;;;22.90;42.10;;;;;;4990919;28;20239;-61
2023/10/15 13:01:42;;;;;;;1.90;1.80;;;22.90;42.10;;;;;;4989656;28;20226;-61
2023/10/15 13:04:08;;;;;;;1.63;1.53;;;22.90;42.20;;;;;;4996555;28;20222;-62
2023/10/15 13:06:37;;;;;;;3.00;1.97;;;22.90;42.20;;;;;;4980846;28;20465;-62
2023/10/15 13:09:08;;;;;;;1.57;1.37;;;22.90;42.20;;;;;;4977514;28;20238;-62